createdAt,value
2022-11-29T00:18:29.509Z,19.3
2022-11-29T00:48:29.523Z,19.2
2022-11-29T01:18:29.244Z,19.2
2022-11-29T01:48:29.520Z,19.1
2022-11-29T02:18:29.528Z,19.0
2022-11-29T02:48:29.555Z,19.0
2022-11-29T03:18:29.255Z,19.0
2022-11-29T03:48:29.275Z,18.9
2022-11-29T04:18:29.536Z,18.8
2022-11-29T04:48:29.584Z,19.0
2022-11-29T05:18:29.555Z,19.0
2022-11-29T05:48:29.293Z,19.0
2022-11-29T06:18:29.548Z,19.2
2022-11-29T06:48:29.540Z,19.3
2022-11-29T07:18:29.559Z,19.5
2022-11-29T07:48:29.541Z,19.6
2022-11-29T08:18:29.539Z,19.8
2022-11-29T08:48:29.511Z,19.9
2022-11-29T09:18:29.550Z,19.8
2022-11-29T09:48:29.516Z,19.8
2022-11-29T10:18:29.510Z,19.8
2022-11-29T10:48:29.559Z,19.8
2022-11-29T11:18:29.519Z,19.8
2022-11-29T11:48:29.512Z,19.8
2022-11-29T12:18:29.591Z,20.0
2022-11-29T12:48:29.625Z,20.0
2022-11-29T13:18:29.614Z,20.1
2022-11-29T13:48:29.535Z,20.1
2022-11-29T14:18:29.255Z,20.1
2022-11-29T14:48:29.573Z,20.3
2022-11-29T15:18:29.524Z,20.3
2022-11-29T15:48:29.565Z,20.5
2022-11-29T16:18:29.496Z,20.5
2022-11-29T16:48:29.503Z,20.6
2022-11-29T17:18:29.554Z,20.5
2022-11-29T17:48:29.497Z,20.4
2022-11-29T18:18:29.509Z,20.4
2022-11-29T18:48:29.517Z,20.4
2022-11-29T19:18:29.501Z,20.4
2022-11-29T19:48:29.490Z,20.3
2022-11-29T20:18:29.492Z,20.3
2022-11-29T20:48:29.532Z,20.3
2022-11-29T21:18:29.535Z,20.1
2022-11-29T21:48:29.506Z,20.1
2022-11-29T22:18:29.496Z,20.0
2022-11-29T22:48:29.484Z,19.8
2022-11-29T23:18:29.495Z,19.7
2022-11-29T23:48:29.527Z,19.6
